sensor_id;sensor_type;location;lat;lon;timestamp;temperature;humidity
8605;DHT22;4340;52.516;13.468;2022-07-01T00:02:05;21.90;99.90
8605;DHT22;4340;52.516;13.468;2022-07-01T00:04:32;21.80;99.90
8605;DHT22;4340;52.516;13.468;2022-07-01T00:06:58;21.80;99.90
8605;DHT22;4340;52.516;13.468;2022-07-01T00:09:25;21.80;99.90
8605;DHT22;4340;52.516;13.468;2022-07-01T00:11:52;21.70;99.90
8605;DHT22;4340;52.516;13.468;2022-07-01T00:14:19;21.70;99.90
8605;DHT22;4340;52.516;13.468;2022-07-01T00:16:48;21.60;99.90
8605;DHT22;4340;52.516;13.468;2022-07-01T00:19:16;21.60;99.90
8605;DHT22;4340;52.516;13.468;2022-07-01T00:21:43;21.50;99.90
8605;DHT22;4340;52.516;13.468;2022-07-01T00:24:10;21.60;99.90
8605;DHT22;4340;52.516;13.468;2022-07-01T00:26:36;21.60;99.90
8605;DHT22;4340;52.516;13.468;2022-07-01T00:29:03;21.50;99.90
8605;DHT22;4340;52.516;13.468;2022-07-01T00:31:30;21.50;99.90
8605;DHT22;4340;52.516;13.468;2022-07-01T00:33:56;21.50;99.90
8605;DHT22;4340;52.516;13.468;2022-07-01T00:36:24;21.40;99.90
8605;DHT22;4340;52.516;13.468;2022-07-01T00:38:50;21.40;99.90
8605;DHT22;4340;52.516;13.468;2022-07-01T00:41:17;21.40;99.90
8605;DHT22;4340;52.516;13.468;2022-07-01T00:43:43;21.40;99.90
8605;DHT22;4340;52.516;13.468;2022-07-01T00:46:11;21.30;99.90
8605;DHT22;4340;52.516;13.468;2022-07-01T00:48:38;21.20;99.90
8605;DHT22;4340;52.516;13.468;2022-07-01T00:51:04;21.30;99.90
8605;DHT22;4340;52.516;13.468;2022-07-01T00:53:32;21.30;99.90
8605;DHT22;4340;52.516;13.468;2022-07-01T00:55:59;21.40;99.90
8605;DHT22;4340;52.516;13.468;2022-07-01T00:58:26;21.40;99.90
8605;DHT22;4340;52.516;13.468;2022-07-01T01:00:54;21.40;99.90
8605;DHT22;4340;52.516;13.468;2022-07-01T01:03:20;21.30;99.90
8605;DHT22;4340;52.516;13.468;2022-07-01T01:05:47;21.30;99.90
8605;DHT22;4340;52.516;13.468;2022-07-01T01:08:15;21.30;99.90
8605;DHT22;4340;52.516;13.468;2022-07-01T01:10:43;21.30;99.90
8605;DHT22;4340;52.516;13.468;2022-07-01T01:13:10;21.30;99.90
8605;DHT22;4340;52.516;13.468;2022-07-01T01:15:38;21.30;99.90
8605;DHT22;4340;52.516;13.468;2022-07-01T01:18:04;21.30;99.90
8605;DHT22;4340;52.516;13.468;2022-07-01T01:20:34;21.30;99.90
8605;DHT22;4340;52.516;13.468;2022-07-01T01:23:01;21.30;99.90
8605;DHT22;4340;52.516;13.468;2022-07-01T01:25:30;21.20;99.90
8605;DHT22;4340;52.516;13.468;2022-07-01T01:27:56;21.20;99.90
8605;DHT22;4340;52.516;13.468;2022-07-01T01:30:23;21.20;99.90
8605;DHT22;4340;52.516;13.468;2022-07-01T01:32:49;21.20;99.90
8605;DHT22;4340;52.516;13.468;2022-07-01T01:35:16;21.20;99.90
8605;DHT22;4340;52.516;13.468;2022-07-01T01:37:44;21.20;99.90
8605;DHT22;4340;52.516;13.468;2022-07-01T01:40:11;21.20;99.90
8605;DHT22;4340;52.516;13.468;2022-07-01T01:42:40;21.20;99.90
8605;DHT22;4340;52.516;13.468;2022-07-01T01:45:07;21.20;99.90
8605;DHT22;4340;52.516;13.468;2022-07-01T01:47:34;21.10;99.90
8605;DHT22;4340;52.516;13.468;2022-07-01T01:50:00;21.10;99.90
8605;DHT22;4340;52.516;13.468;2022-07-01T01:52:27;21.10;99.90
8605;DHT22;4340;52.516;13.468;2022-07-01T01:54:55;21.10;99.90
8605;DHT22;4340;52.516;13.468;2022-07-01T01:57:21;21.00;99.90
8605;DHT22;4340;52.516;13.468;2022-07-01T01:59:48;21.00;99.90
8605;DHT22;4340;52.516;13.468;2022-07-01T02:02:15;21.00;99.90
8605;DHT22;4340;52.516;13.468;2022-07-01T02:04:41;21.00;99.90
8605;DHT22;4340;52.516;13.468;2022-07-01T02:07:08;20.90;99.90
8605;DHT22;4340;52.516;13.468;2022-07-01T02:09:35;21.00;99.90
8605;DHT22;4340;52.516;13.468;2022-07-01T02:12:03;21.00;99.90
8605;DHT22;4340;52.516;13.468;2022-07-01T02:14:30;20.90;99.90
8605;DHT22;4340;52.516;13.468;2022-07-01T02:16:57;21.00;99.90
8605;DHT22;4340;52.516;13.468;2022-07-01T02:19:23;20.90;99.90
8605;DHT22;4340;52.516;13.468;2022-07-01T02:21:50;21.00;99.90
8605;DHT22;4340;52.516;13.468;2022-07-01T02:24:17;20.90;99.90
8605;DHT22;4340;52.516;13.468;2022-07-01T02:26:44;20.90;99.90
8605;DHT22;4340;52.516;13.468;2022-07-01T02:29:12;21.00;99.90
8605;DHT22;4340;52.516;13.468;2022-07-01T02:31:39;21.00;99.90
8605;DHT22;4340;52.516;13.468;2022-07-01T02:34:05;20.90;99.90
8605;DHT22;4340;52.516;13.468;2022-07-01T02:36:32;20.90;99.90
8605;DHT22;4340;52.516;13.468;2022-07-01T02:38:58;20.90;99.90
8605;DHT22;4340;52.516;13.468;2022-07-01T02:41:25;20.80;99.90
8605;DHT22;4340;52.516;13.468;2022-07-01T02:43:52;20.90;99.90
8605;DHT22;4340;52.516;13.468;2022-07-01T02:46:20;20.80;99.90
8605;DHT22;4340;52.516;13.468;2022-07-01T02:48:47;20.80;99.90
8605;DHT22;4340;52.516;13.468;2022-07-01T02:51:13;20.80;99.90
8605;DHT22;4340;52.516;13.468;2022-07-01T02:53:40;20.90;99.90
8605;DHT22;4340;52.516;13.468;2022-07-01T02:56:06;20.90;99.90
8605;DHT22;4340;52.516;13.468;2022-07-01T02:58:33;20.90;99.90
8605;DHT22;4340;52.516;13.468;2022-07-01T03:00:59;20.90;99.90
8605;DHT22;4340;52.516;13.468;2022-07-01T03:03:27;21.00;99.90
8605;DHT22;4340;52.516;13.468;2022-07-01T03:05:54;21.00;99.90
8605;DHT22;4340;52.516;13.468;2022-07-01T03:08:21;21.00;99.90
8605;DHT22;4340;52.516;13.468;2022-07-01T03:10:47;21.00;99.90
8605;DHT22;4340;52.516;13.468;2022-07-01T03:13:14;21.00;99.90
8605;DHT22;4340;52.516;13.468;2022-07-01T03:15:40;21.10;99.90
8605;DHT22;4340;52.516;13.468;2022-07-01T03:18:07;21.10;99.90
8605;DHT22;4340;52.516;13.468;2022-07-01T03:20:35;21.10;99.90
8605;DHT22;4340;52.516;13.468;2022-07-01T03:23:01;21.10;99.90
8605;DHT22;4340;52.516;13.468;2022-07-01T03:25:28;21.00;99.90
8605;DHT22;4340;52.516;13.468;2022-07-01T03:27:55;21.10;99.90
8605;DHT22;4340;52.516;13.468;2022-07-01T03:30:21;21.10;99.90
8605;DHT22;4340;52.516;13.468;2022-07-01T03:32:48;21.10;99.90
8605;DHT22;4340;52.516;13.468;2022-07-01T03:35:14;21.10;99.90
8605;DHT22;4340;52.516;13.468;2022-07-01T03:37:59;21.20;99.90
8605;DHT22;4340;52.516;13.468;2022-07-01T03:40:26;21.20;99.90
8605;DHT22;4340;52.516;13.468;2022-07-01T03:42:53;21.10;99.90
8605;DHT22;4340;52.516;13.468;2022-07-01T03:45:19;21.10;99.90
8605;DHT22;4340;52.516;13.468;2022-07-01T03:47:46;21.10;99.90
8605;DHT22;4340;52.516;13.468;2022-07-01T03:50:13;21.10;99.90
8605;DHT22;4340;52.516;13.468;2022-07-01T03:52:39;21.20;99.90
8605;DHT22;4340;52.516;13.468;2022-07-01T03:55:09;21.20;99.90
8605;DHT22;4340;52.516;13.468;2022-07-01T03:57:34;21.30;99.90
8605;DHT22;4340;52.516;13.468;2022-07-01T04:00:01;21.30;99.90
8605;DHT22;4340;52.516;13.468;2022-07-01T04:02:28;21.40;99.90
8605;DHT22;4340;52.516;13.468;2022-07-01T04:04:54;21.50;99.90
8605;DHT22;4340;52.516;13.468;2022-07-01T04:07:21;21.50;99.90
8605;DHT22;4340;52.516;13.468;2022-07-01T04:09:48;21.60;99.90
8605;DHT22;4340;52.516;13.468;2022-07-01T04:12:16;21.60;99.90
8605;DHT22;4340;52.516;13.468;2022-07-01T04:14:44;21.70;99.90
8605;DHT22;4340;52.516;13.468;2022-07-01T04:17:11;21.70;99.90
8605;DHT22;4340;52.516;13.468;2022-07-01T04:19:38;21.80;99.90
8605;DHT22;4340;52.516;13.468;2022-07-01T04:22:04;21.70;99.90
8605;DHT22;4340;52.516;13.468;2022-07-01T04:24:48;21.80;99.90
8605;DHT22;4340;52.516;13.468;2022-07-01T04:27:16;21.70;99.90
8605;DHT22;4340;52.516;13.468;2022-07-01T04:29:43;21.80;99.90
8605;DHT22;4340;52.516;13.468;2022-07-01T04:32:10;21.80;99.90
8605;DHT22;4340;52.516;13.468;2022-07-01T04:34:36;21.80;99.90
8605;DHT22;4340;52.516;13.468;2022-07-01T04:37:03;22.00;99.90
8605;DHT22;4340;52.516;13.468;2022-07-01T04:39:30;22.00;99.90
8605;DHT22;4340;52.516;13.468;2022-07-01T04:41:56;22.10;99.90
8605;DHT22;4340;52.516;13.468;2022-07-01T04:44:27;22.10;99.90
8605;DHT22;4340;52.516;13.468;2022-07-01T04:46:53;22.20;99.90
8605;DHT22;4340;52.516;13.468;2022-07-01T04:49:20;22.20;99.90
8605;DHT22;4340;52.516;13.468;2022-07-01T04:51:46;22.20;99.90
8605;DHT22;4340;52.516;13.468;2022-07-01T04:54:13;22.30;99.90
8605;DHT22;4340;52.516;13.468;2022-07-01T04:56:40;22.40;99.90
8605;DHT22;4340;52.516;13.468;2022-07-01T04:59:07;22.40;99.90
8605;DHT22;4340;52.516;13.468;2022-07-01T05:01:35;22.60;99.90
8605;DHT22;4340;52.516;13.468;2022-07-01T05:04:01;22.80;99.90
8605;DHT22;4340;52.516;13.468;2022-07-01T05:06:28;22.80;99.90
8605;DHT22;4340;52.516;13.468;2022-07-01T05:08:54;23.20;99.90
8605;DHT22;4340;52.516;13.468;2022-07-01T05:11:21;23.70;99.90
8605;DHT22;4340;52.516;13.468;2022-07-01T05:13:48;24.00;99.90
8605;DHT22;4340;52.516;13.468;2022-07-01T05:16:14;24.20;99.90
8605;DHT22;4340;52.516;13.468;2022-07-01T05:18:42;24.40;99.90
8605;DHT22;4340;52.516;13.468;2022-07-01T05:21:27;24.60;99.90
8605;DHT22;4340;52.516;13.468;2022-07-01T05:24:11;24.40;99.90
8605;DHT22;4340;52.516;13.468;2022-07-01T05:26:37;24.70;99.90
8605;DHT22;4340;52.516;13.468;2022-07-01T05:29:04;25.40;99.90
8605;DHT22;4340;52.516;13.468;2022-07-01T05:31:31;25.70;69.10
8605;DHT22;4340;52.516;13.468;2022-07-01T05:33:59;25.90;32.30
8605;DHT22;4340;52.516;13.468;2022-07-01T05:36:26;26.00;23.70
8605;DHT22;4340;52.516;13.468;2022-07-01T05:38:53;26.20;7.30
8605;DHT22;4340;52.516;13.468;2022-07-01T05:41:19;26.60;1.00
8605;DHT22;4340;52.516;13.468;2022-07-01T05:43:46;26.90;1.00
8605;DHT22;4340;52.516;13.468;2022-07-01T05:46:12;27.00;1.00
8605;DHT22;4340;52.516;13.468;2022-07-01T05:48:39;27.30;1.00
8605;DHT22;4340;52.516;13.468;2022-07-01T05:51:07;27.80;99.90
8605;DHT22;4340;52.516;13.468;2022-07-01T05:53:33;28.30;99.90
8605;DHT22;4340;52.516;13.468;2022-07-01T05:56:00;28.60;1.00
8605;DHT22;4340;52.516;13.468;2022-07-01T05:58:26;28.40;1.00
8605;DHT22;4340;52.516;13.468;2022-07-01T06:00:53;27.20;99.90
8605;DHT22;4340;52.516;13.468;2022-07-01T06:03:20;27.10;1.00
8605;DHT22;4340;52.516;13.468;2022-07-01T06:05:46;26.80;1.00
8605;DHT22;4340;52.516;13.468;2022-07-01T06:08:14;26.10;1.00
8605;DHT22;4340;52.516;13.468;2022-07-01T06:10:41;26.10;1.00
8605;DHT22;4340;52.516;13.468;2022-07-01T06:13:07;26.20;1.00
8605;DHT22;4340;52.516;13.468;2022-07-01T06:15:34;25.90;15.10
8605;DHT22;4340;52.516;13.468;2022-07-01T06:18:01;25.90;14.90
8605;DHT22;4340;52.516;13.468;2022-07-01T06:20:28;26.40;1.00
8605;DHT22;4340;52.516;13.468;2022-07-01T06:22:54;26.50;1.00
8605;DHT22;4340;52.516;13.468;2022-07-01T06:25:24;26.30;1.00
8605;DHT22;4340;52.516;13.468;2022-07-01T06:27:51;26.60;1.00
8605;DHT22;4340;52.516;13.468;2022-07-01T06:30:18;26.70;1.00
8605;DHT22;4340;52.516;13.468;2022-07-01T06:32:44;26.60;1.00
8605;DHT22;4340;52.516;13.468;2022-07-01T06:35:11;26.70;1.00
8605;DHT22;4340;52.516;13.468;2022-07-01T06:37:38;26.30;1.00
8605;DHT22;4340;52.516;13.468;2022-07-01T06:40:05;26.00;1.00
8605;DHT22;4340;52.516;13.468;2022-07-01T06:42:34;25.90;20.90
8605;DHT22;4340;52.516;13.468;2022-07-01T06:45:01;25.90;21.70
8605;DHT22;4340;52.516;13.468;2022-07-01T06:47:28;25.90;6.20
8605;DHT22;4340;52.516;13.468;2022-07-01T06:49:54;26.00;1.00
8605;DHT22;4340;52.516;13.468;2022-07-01T06:52:21;25.90;13.30
8605;DHT22;4340;52.516;13.468;2022-07-01T06:54:48;25.80;23.60
8605;DHT22;4340;52.516;13.468;2022-07-01T06:57:14;25.60;39.50
8605;DHT22;4340;52.516;13.468;2022-07-01T06:59:42;25.40;88.80
8605;DHT22;4340;52.516;13.468;2022-07-01T07:02:09;25.30;98.00
8605;DHT22;4340;52.516;13.468;2022-07-01T07:04:35;25.30;90.70
8605;DHT22;4340;52.516;13.468;2022-07-01T07:07:02;25.40;82.40
8605;DHT22;4340;52.516;13.468;2022-07-01T07:09:29;25.40;81.80
8605;DHT22;4340;52.516;13.468;2022-07-01T07:11:55;25.50;93.00
8605;DHT22;4340;52.516;13.468;2022-07-01T07:14:22;25.60;61.00
8605;DHT22;4340;52.516;13.468;2022-07-01T07:16:50;25.40;82.80
8605;DHT22;4340;52.516;13.468;2022-07-01T07:19:18;25.50;86.40
8605;DHT22;4340;52.516;13.468;2022-07-01T07:21:45;25.80;16.20
8605;DHT22;4340;52.516;13.468;2022-07-01T07:24:12;25.80;16.40
8605;DHT22;4340;52.516;13.468;2022-07-01T07:26:38;26.20;1.00
8605;DHT22;4340;52.516;13.468;2022-07-01T07:29:05;26.40;1.00
8605;DHT22;4340;52.516;13.468;2022-07-01T07:31:32;26.40;1.00
8605;DHT22;4340;52.516;13.468;2022-07-01T07:34:00;26.40;1.00
8605;DHT22;4340;52.516;13.468;2022-07-01T07:36:26;26.50;1.00
8605;DHT22;4340;52.516;13.468;2022-07-01T07:38:53;26.60;1.00
8605;DHT22;4340;52.516;13.468;2022-07-01T07:41:19;26.40;1.00
8605;DHT22;4340;52.516;13.468;2022-07-01T07:43:46;26.40;1.00
8605;DHT22;4340;52.516;13.468;2022-07-01T07:46:14;26.40;1.00
8605;DHT22;4340;52.516;13.468;2022-07-01T07:48:40;26.20;1.00
8605;DHT22;4340;52.516;13.468;2022-07-01T07:51:09;26.00;99.90
8605;DHT22;4340;52.516;13.468;2022-07-01T07:53:39;26.20;1.00
8605;DHT22;4340;52.516;13.468;2022-07-01T07:56:06;26.30;1.00
8605;DHT22;4340;52.516;13.468;2022-07-01T07:58:33;26.30;99.90
8605;DHT22;4340;52.516;13.468;2022-07-01T08:00:59;26.40;1.00
8605;DHT22;4340;52.516;13.468;2022-07-01T08:03:26;26.20;1.00
8605;DHT22;4340;52.516;13.468;2022-07-01T08:05:52;26.10;99.90
8605;DHT22;4340;52.516;13.468;2022-07-01T08:08:20;26.20;1.00
8605;DHT22;4340;52.516;13.468;2022-07-01T08:10:47;26.30;1.00
8605;DHT22;4340;52.516;13.468;2022-07-01T08:13:13;26.60;99.90
8605;DHT22;4340;52.516;13.468;2022-07-01T08:15:40;26.40;1.00
8605;DHT22;4340;52.516;13.468;2022-07-01T08:18:08;26.50;1.00
8605;DHT22;4340;52.516;13.468;2022-07-01T08:20:35;26.40;1.00
8605;DHT22;4340;52.516;13.468;2022-07-01T08:23:02;26.50;1.00
8605;DHT22;4340;52.516;13.468;2022-07-01T08:25:29;26.50;1.00
8605;DHT22;4340;52.516;13.468;2022-07-01T08:27:56;26.40;1.00
8605;DHT22;4340;52.516;13.468;2022-07-01T08:30:23;26.10;1.00
8605;DHT22;4340;52.516;13.468;2022-07-01T08:32:49;26.30;1.00
8605;DHT22;4340;52.516;13.468;2022-07-01T08:35:16;26.30;1.00
8605;DHT22;4340;52.516;13.468;2022-07-01T08:37:43;26.30;1.00
8605;DHT22;4340;52.516;13.468;2022-07-01T08:40:10;26.40;1.00
8605;DHT22;4340;52.516;13.468;2022-07-01T08:42:38;26.40;99.90
8605;DHT22;4340;52.516;13.468;2022-07-01T08:45:05;26.40;99.90
8605;DHT22;4340;52.516;13.468;2022-07-01T08:47:32;26.50;1.00
8605;DHT22;4340;52.516;13.468;2022-07-01T08:49:59;26.40;1.00
8605;DHT22;4340;52.516;13.468;2022-07-01T08:52:27;26.20;99.90
8605;DHT22;4340;52.516;13.468;2022-07-01T08:54:54;26.30;1.00
8605;DHT22;4340;52.516;13.468;2022-07-01T08:57:21;26.40;1.00
8605;DHT22;4340;52.516;13.468;2022-07-01T09:00:01;26.30;99.90
8605;DHT22;4340;52.516;13.468;2022-07-01T09:02:49;26.60;1.00
8605;DHT22;4340;52.516;13.468;2022-07-01T09:05:16;26.40;1.00
8605;DHT22;4340;52.516;13.468;2022-07-01T09:07:42;26.50;1.00
8605;DHT22;4340;52.516;13.468;2022-07-01T09:10:12;26.70;99.90
8605;DHT22;4340;52.516;13.468;2022-07-01T09:12:39;26.70;99.90
8605;DHT22;4340;52.516;13.468;2022-07-01T09:15:20;26.60;1.00
8605;DHT22;4340;52.516;13.468;2022-07-01T09:17:47;26.60;1.00
8605;DHT22;4340;52.516;13.468;2022-07-01T09:20:26;26.60;1.00
8605;DHT22;4340;52.516;13.468;2022-07-01T09:23:03;26.80;99.90
8605;DHT22;4340;52.516;13.468;2022-07-01T09:25:32;27.10;1.00
8605;DHT22;4340;52.516;13.468;2022-07-01T09:28:06;27.00;99.90
8605;DHT22;4340;52.516;13.468;2022-07-01T09:30:35;27.00;1.00
8605;DHT22;4340;52.516;13.468;2022-07-01T09:33:10;26.70;1.00
8605;DHT22;4340;52.516;13.468;2022-07-01T09:35:37;26.30;99.90
8605;DHT22;4340;52.516;13.468;2022-07-01T09:38:04;25.90;1.00
8605;DHT22;4340;52.516;13.468;2022-07-01T09:40:50;25.30;1.00
8605;DHT22;4340;52.516;13.468;2022-07-01T09:43:19;24.50;1.00
8605;DHT22;4340;52.516;13.468;2022-07-01T09:45:55;24.00;1.00
8605;DHT22;4340;52.516;13.468;2022-07-01T09:48:24;23.50;45.30
8605;DHT22;4340;52.516;13.468;2022-07-01T09:50:51;23.60;19.10
8605;DHT22;4340;52.516;13.468;2022-07-01T09:53:18;23.50;14.00
8605;DHT22;4340;52.516;13.468;2022-07-01T09:55:45;23.10;38.10
8605;DHT22;4340;52.516;13.468;2022-07-01T09:58:13;22.50;99.90
8605;DHT22;4340;52.516;13.468;2022-07-01T10:00:40;22.70;75.00
8605;DHT22;4340;52.516;13.468;2022-07-01T10:03:08;22.70;97.10
8605;DHT22;4340;52.516;13.468;2022-07-01T10:05:39;22.80;35.40
8605;DHT22;4340;52.516;13.468;2022-07-01T10:08:15;22.70;49.40
8605;DHT22;4340;52.516;13.468;2022-07-01T10:10:49;22.50;43.90
8605;DHT22;4340;52.516;13.468;2022-07-01T10:13:21;22.30;57.00
8605;DHT22;4340;52.516;13.468;2022-07-01T10:15:50;22.20;77.90
8605;DHT22;4340;52.516;13.468;2022-07-01T10:18:23;21.80;93.80
8605;DHT22;4340;52.516;13.468;2022-07-01T10:20:51;22.00;96.10
8605;DHT22;4340;52.516;13.468;2022-07-01T10:23:20;21.70;99.90
8605;DHT22;4340;52.516;13.468;2022-07-01T10:25:49;21.70;99.90
8605;DHT22;4340;52.516;13.468;2022-07-01T10:28:24;22.00;99.90
8605;DHT22;4340;52.516;13.468;2022-07-01T10:30:52;22.10;86.50
8605;DHT22;4340;52.516;13.468;2022-07-01T10:33:29;22.00;99.90
8605;DHT22;4340;52.516;13.468;2022-07-01T10:36:04;22.20;99.90
8605;DHT22;4340;52.516;13.468;2022-07-01T10:38:30;22.10;76.00
8605;DHT22;4340;52.516;13.468;2022-07-01T10:40:57;22.00;96.40
8605;DHT22;4340;52.516;13.468;2022-07-01T10:43:36;21.80;98.40
8605;DHT22;4340;52.516;13.468;2022-07-01T10:46:03;22.10;98.80
8605;DHT22;4340;52.516;13.468;2022-07-01T10:48:32;21.90;93.70
8605;DHT22;4340;52.516;13.468;2022-07-01T10:51:00;21.80;99.90
8605;DHT22;4340;52.516;13.468;2022-07-01T10:53:44;21.50;99.90
8605;DHT22;4340;52.516;13.468;2022-07-01T10:56:15;21.60;99.90
8605;DHT22;4340;52.516;13.468;2022-07-01T10:58:42;21.70;99.90
8605;DHT22;4340;52.516;13.468;2022-07-01T11:01:09;21.60;99.90
8605;DHT22;4340;52.516;13.468;2022-07-01T11:03:38;21.40;99.90
8605;DHT22;4340;52.516;13.468;2022-07-01T11:06:05;21.00;99.90
8605;DHT22;4340;52.516;13.468;2022-07-01T11:08:32;21.00;99.90
8605;DHT22;4340;52.516;13.468;2022-07-01T11:11:00;21.00;99.90
8605;DHT22;4340;52.516;13.468;2022-07-01T11:13:29;21.00;99.90
8605;DHT22;4340;52.516;13.468;2022-07-01T11:15:56;21.10;99.90
8605;DHT22;4340;52.516;13.468;2022-07-01T11:18:23;21.00;99.90
8605;DHT22;4340;52.516;13.468;2022-07-01T11:20:51;20.90;99.90
8605;DHT22;4340;52.516;13.468;2022-07-01T11:23:21;20.90;99.90
8605;DHT22;4340;52.516;13.468;2022-07-01T11:25:48;20.50;99.90
8605;DHT22;4340;52.516;13.468;2022-07-01T11:28:14;20.10;99.90
8605;DHT22;4340;52.516;13.468;2022-07-01T11:30:41;20.40;99.90
8605;DHT22;4340;52.516;13.468;2022-07-01T11:33:08;20.40;99.90
8605;DHT22;4340;52.516;13.468;2022-07-01T11:35:36;20.50;99.90
8605;DHT22;4340;52.516;13.468;2022-07-01T11:38:23;20.40;99.90
8605;DHT22;4340;52.516;13.468;2022-07-01T11:41:09;20.50;99.90
8605;DHT22;4340;52.516;13.468;2022-07-01T11:43:37;20.30;99.90
8605;DHT22;4340;52.516;13.468;2022-07-01T11:46:06;20.20;99.90
8605;DHT22;4340;52.516;13.468;2022-07-01T11:48:39;20.20;99.90
8605;DHT22;4340;52.516;13.468;2022-07-01T11:51:09;20.10;99.90
8605;DHT22;4340;52.516;13.468;2022-07-01T11:53:39;20.30;99.90
8605;DHT22;4340;52.516;13.468;2022-07-01T11:56:06;20.20;99.90
8605;DHT22;4340;52.516;13.468;2022-07-01T11:58:49;20.30;99.90
8605;DHT22;4340;52.516;13.468;2022-07-01T12:01:29;20.00;99.90
8605;DHT22;4340;52.516;13.468;2022-07-01T12:03:57;20.20;99.90
8605;DHT22;4340;52.516;13.468;2022-07-01T12:06:25;20.20;99.90
8605;DHT22;4340;52.516;13.468;2022-07-01T12:08:54;20.20;99.90
8605;DHT22;4340;52.516;13.468;2022-07-01T12:11:23;20.30;99.90
8605;DHT22;4340;52.516;13.468;2022-07-01T12:13:51;20.10;99.90
8605;DHT22;4340;52.516;13.468;2022-07-01T12:16:18;20.40;99.90
8605;DHT22;4340;52.516;13.468;2022-07-01T12:18:56;20.50;99.90
8605;DHT22;4340;52.516;13.468;2022-07-01T12:21:23;20.50;99.90
8605;DHT22;4340;52.516;13.468;2022-07-01T12:24:08;20.10;99.90
8605;DHT22;4340;52.516;13.468;2022-07-01T12:26:46;20.10;99.90
8605;DHT22;4340;52.516;13.468;2022-07-01T12:29:13;20.40;99.90
8605;DHT22;4340;52.516;13.468;2022-07-01T12:31:40;20.20;99.90
8605;DHT22;4340;52.516;13.468;2022-07-01T12:34:07;20.20;99.90
8605;DHT22;4340;52.516;13.468;2022-07-01T12:36:35;19.90;99.90
8605;DHT22;4340;52.516;13.468;2022-07-01T12:39:06;20.20;99.90
8605;DHT22;4340;52.516;13.468;2022-07-01T12:41:35;20.50;99.90
8605;DHT22;4340;52.516;13.468;2022-07-01T12:44:06;20.60;99.90
8605;DHT22;4340;52.516;13.468;2022-07-01T12:46:33;20.60;99.90
8605;DHT22;4340;52.516;13.468;2022-07-01T12:49:00;20.60;99.90
8605;DHT22;4340;52.516;13.468;2022-07-01T12:51:31;20.60;99.90
8605;DHT22;4340;52.516;13.468;2022-07-01T12:53:59;20.60;99.90
8605;DHT22;4340;52.516;13.468;2022-07-01T12:56:28;20.50;99.90
8605;DHT22;4340;52.516;13.468;2022-07-01T12:58:55;20.80;99.90
8605;DHT22;4340;52.516;13.468;2022-07-01T13:01:22;20.80;99.90
8605;DHT22;4340;52.516;13.468;2022-07-01T13:03:49;20.40;99.90
8605;DHT22;4340;52.516;13.468;2022-07-01T13:06:16;20.00;99.90
8605;DHT22;4340;52.516;13.468;2022-07-01T13:08:42;20.30;99.90
8605;DHT22;4340;52.516;13.468;2022-07-01T13:11:09;20.30;99.90
8605;DHT22;4340;52.516;13.468;2022-07-01T13:13:37;20.30;99.90
8605;DHT22;4340;52.516;13.468;2022-07-01T13:16:04;20.40;99.90
8605;DHT22;4340;52.516;13.468;2022-07-01T13:18:30;20.40;99.90
8605;DHT22;4340;52.516;13.468;2022-07-01T13:20:57;20.20;99.90
8605;DHT22;4340;52.516;13.468;2022-07-01T13:23:24;20.10;99.90
8605;DHT22;4340;52.516;13.468;2022-07-01T13:25:50;20.20;99.90
8605;DHT22;4340;52.516;13.468;2022-07-01T13:28:17;20.30;99.90
8605;DHT22;4340;52.516;13.468;2022-07-01T13:30:45;20.20;99.90
8605;DHT22;4340;52.516;13.468;2022-07-01T13:33:12;20.30;99.90
8605;DHT22;4340;52.516;13.468;2022-07-01T13:35:39;20.40;99.90
8605;DHT22;4340;52.516;13.468;2022-07-01T13:38:05;20.00;99.90
8605;DHT22;4340;52.516;13.468;2022-07-01T13:40:32;20.20;99.90
8605;DHT22;4340;52.516;13.468;2022-07-01T13:42:59;20.20;99.90
8605;DHT22;4340;52.516;13.468;2022-07-01T13:45:26;20.00;99.90
8605;DHT22;4340;52.516;13.468;2022-07-01T13:47:54;19.90;99.90
8605;DHT22;4340;52.516;13.468;2022-07-01T13:50:20;19.80;99.90
8605;DHT22;4340;52.516;13.468;2022-07-01T13:52:47;19.50;99.90
8605;DHT22;4340;52.516;13.468;2022-07-01T13:55:15;19.70;99.90
8605;DHT22;4340;52.516;13.468;2022-07-01T13:57:42;19.50;99.90
8605;DHT22;4340;52.516;13.468;2022-07-01T14:00:11;19.80;99.90
8605;DHT22;4340;52.516;13.468;2022-07-01T14:02:37;19.60;99.90
8605;DHT22;4340;52.516;13.468;2022-07-01T14:05:06;19.60;99.90
8605;DHT22;4340;52.516;13.468;2022-07-01T14:07:33;19.60;99.90
8605;DHT22;4340;52.516;13.468;2022-07-01T14:09:59;19.50;99.90
8605;DHT22;4340;52.516;13.468;2022-07-01T14:12:27;19.50;99.90
8605;DHT22;4340;52.516;13.468;2022-07-01T14:14:54;19.50;99.90
8605;DHT22;4340;52.516;13.468;2022-07-01T14:17:20;19.60;99.90
8605;DHT22;4340;52.516;13.468;2022-07-01T14:19:47;19.40;99.90
8605;DHT22;4340;52.516;13.468;2022-07-01T14:22:15;19.30;99.90
8605;DHT22;4340;52.516;13.468;2022-07-01T14:24:41;19.30;99.90
8605;DHT22;4340;52.516;13.468;2022-07-01T14:27:08;19.50;99.90
8605;DHT22;4340;52.516;13.468;2022-07-01T14:29:34;19.60;99.90
8605;DHT22;4340;52.516;13.468;2022-07-01T14:32:01;19.30;99.90
8605;DHT22;4340;52.516;13.468;2022-07-01T14:34:28;19.10;99.90
8605;DHT22;4340;52.516;13.468;2022-07-01T14:36:54;19.00;99.90
8605;DHT22;4340;52.516;13.468;2022-07-01T14:39:22;19.10;99.90
8605;DHT22;4340;52.516;13.468;2022-07-01T14:41:49;19.20;99.90
8605;DHT22;4340;52.516;13.468;2022-07-01T14:44:16;19.10;99.90
8605;DHT22;4340;52.516;13.468;2022-07-01T14:46:43;19.00;99.90
8605;DHT22;4340;52.516;13.468;2022-07-01T14:49:10;19.10;99.90
8605;DHT22;4340;52.516;13.468;2022-07-01T14:51:37;19.00;99.90
8605;DHT22;4340;52.516;13.468;2022-07-01T14:54:03;19.20;99.90
8605;DHT22;4340;52.516;13.468;2022-07-01T14:56:31;19.30;99.90
8605;DHT22;4340;52.516;13.468;2022-07-01T14:58:58;19.30;99.90
8605;DHT22;4340;52.516;13.468;2022-07-01T15:01:24;19.10;99.90
8605;DHT22;4340;52.516;13.468;2022-07-01T15:03:51;19.10;99.90
8605;DHT22;4340;52.516;13.468;2022-07-01T15:06:17;19.10;99.90
8605;DHT22;4340;52.516;13.468;2022-07-01T15:08:44;18.90;99.90
8605;DHT22;4340;52.516;13.468;2022-07-01T15:11:10;18.80;99.90
8605;DHT22;4340;52.516;13.468;2022-07-01T15:13:38;18.80;99.90
8605;DHT22;4340;52.516;13.468;2022-07-01T15:16:06;18.80;99.90
8605;DHT22;4340;52.516;13.468;2022-07-01T15:18:32;18.60;99.90
8605;DHT22;4340;52.516;13.468;2022-07-01T15:20:59;18.50;99.90
8605;DHT22;4340;52.516;13.468;2022-07-01T15:23:27;18.50;99.90
8605;DHT22;4340;52.516;13.468;2022-07-01T15:25:54;18.60;99.90
8605;DHT22;4340;52.516;13.468;2022-07-01T15:28:21;18.50;99.90
8605;DHT22;4340;52.516;13.468;2022-07-01T15:30:50;18.80;99.90
8605;DHT22;4340;52.516;13.468;2022-07-01T15:33:17;18.50;99.90
8605;DHT22;4340;52.516;13.468;2022-07-01T15:35:43;18.40;99.90
8605;DHT22;4340;52.516;13.468;2022-07-01T15:38:10;18.60;99.90
8605;DHT22;4340;52.516;13.468;2022-07-01T15:40:37;18.60;99.90
8605;DHT22;4340;52.516;13.468;2022-07-01T15:43:03;18.60;99.90
8605;DHT22;4340;52.516;13.468;2022-07-01T15:45:32;18.50;99.90
8605;DHT22;4340;52.516;13.468;2022-07-01T15:48:00;18.50;99.90
8605;DHT22;4340;52.516;13.468;2022-07-01T15:50:34;18.60;99.90
8605;DHT22;4340;52.516;13.468;2022-07-01T15:53:01;18.60;99.90
8605;DHT22;4340;52.516;13.468;2022-07-01T15:55:28;18.40;99.90